Time;durP1;ratioP1;P1;durP2;ratioP2;P2;SDS_P1;SDS_P2;PMS_P1;PMS_P2;Temp;Humidity;BMP_temperature;BMP_pressure;BME280_temperature;BME280_humidity;BME280_pressure;Samples;Min_cycle;Max_cycle;Signal;HPM_P1;HPM_P2
2022/07/10 00:02:24;;;;;;;6.00;2.93;;;;;;;;;;5295418;28;20794;-81
2022/07/10 00:04:55;;;;;;;5.63;2.77;;;;;;;;;;5295978;28;20287;-81
2022/07/10 00:07:26;;;;;;;3.80;2.47;;;;;;;;;;5294748;28;20032;-81
2022/07/10 00:09:57;;;;;;;6.70;2.70;;;;;;;;;;5295145;28;20434;-81
2022/07/10 00:12:29;;;;;;;5.40;2.40;;;;;;;;;;5295180;28;20283;-81
2022/07/10 00:15:00;;;;;;;5.10;2.57;;;;;;;;;;5295290;28;20115;-80
2022/07/10 00:17:31;;;;;;;8.40;2.30;;;;;;;;;;5293736;28;20971;-81
2022/07/10 00:20:03;;;;;;;5.60;2.30;;;;;;;;;;5295475;28;20306;-81
2022/07/10 00:22:34;;;;;;;6.45;2.60;;;;;;;;;;5293920;28;21506;-81
2022/07/10 00:25:09;;;;;;;3.90;2.22;;;;;;;;;;5294120;28;20040;-81
2022/07/10 00:27:41;;;;;;;7.25;2.80;;;;;;;;;;5292215;28;20614;-81
2022/07/10 00:30:12;;;;;;;8.00;3.30;;;;;;;;;;5293087;28;20445;-81
2022/07/10 00:32:43;;;;;;;5.30;2.60;;;;;;;;;;5308729;28;20028;-81
2022/07/10 00:35:14;;;;;;;6.30;2.50;;;;;;;;;;5293542;28;20040;-81
2022/07/10 00:37:45;;;;;;;6.63;2.50;;;;;;;;;;5308206;28;20033;-81
2022/07/10 00:40:17;;;;;;;13.52;3.05;;;;;;;;;;5295806;28;20032;-81
2022/07/10 00:42:48;;;;;;;8.57;2.63;;;;;;;;;;5293558;28;20709;-81
2022/07/10 00:45:19;;;;;;;7.53;2.37;;;;;;;;;;5296695;28;20332;-81
2022/07/10 00:47:53;;;;;;;4.00;2.40;;;;;;;;;;5295449;28;20358;-81
2022/07/10 00:50:24;;;;;;;4.25;2.30;;;;;;;;;;5298986;28;20392;-81
2022/07/10 00:52:55;;;;;;;7.97;2.50;;;;;;;;;;5292915;28;20040;-81
2022/07/10 00:55:27;;;;;;;4.30;2.47;;;;;;;;;;5292672;28;20491;-81
2022/07/10 00:57:58;;;;;;;3.75;2.67;;;;;;;;;;5294739;28;21027;-81
2022/07/10 01:00:29;;;;;;;4.82;2.72;;;;;;;;;;5308398;28;20021;-81
2022/07/10 01:03:01;;;;;;;3.78;2.38;;;;;;;;;;5295024;28;20029;-81
2022/07/10 01:05:32;;;;;;;5.83;2.30;;;;;;;;;;5293756;28;20388;-81
2022/07/10 01:08:03;;;;;;;10.18;3.13;;;;;;;;;;5293540;28;20424;-81
2022/07/10 01:10:35;;;;;;;7.13;3.05;;;;;;;;;;5292904;28;20029;-81
2022/07/10 01:13:06;;;;;;;8.95;3.22;;;;;;;;;;5294605;28;20078;-81
2022/07/10 01:15:38;;;;;;;5.28;2.95;;;;;;;;;;5293734;28;20036;-82
2022/07/10 01:18:09;;;;;;;7.85;3.38;;;;;;;;;;5294493;28;20108;-80
2022/07/10 01:20:41;;;;;;;8.82;3.40;;;;;;;;;;5292168;28;20020;-81
2022/07/10 01:23:12;;;;;;;6.07;3.17;;;;;;;;;;5295980;28;20041;-81
2022/07/10 01:25:43;;;;;;;7.88;3.30;;;;;;;;;;5292197;28;20028;-81
2022/07/10 01:28:15;;;;;;;7.68;3.20;;;;;;;;;;5293989;28;20110;-81
2022/07/10 01:30:47;;;;;;;6.40;3.05;;;;;;;;;;5291676;28;20032;-81
2022/07/10 01:33:18;;;;;;;8.32;3.40;;;;;;;;;;5294431;28;20032;-81
2022/07/10 01:35:49;;;;;;;8.23;2.70;;;;;;;;;;5297272;28;20551;-81
2022/07/10 01:38:21;;;;;;;7.30;3.15;;;;;;;;;;5297266;28;20267;-81
2022/07/10 01:40:52;;;;;;;5.82;2.70;;;;;;;;;;5296934;28;20091;-81
2022/07/10 01:43:23;;;;;;;4.18;3.28;;;;;;;;;;5297701;28;20032;-81
2022/07/10 01:45:54;;;;;;;7.57;4.10;;;;;;;;;;5295815;28;20055;-81
2022/07/10 01:48:25;;;;;;;7.83;3.50;;;;;;;;;;5296475;28;20131;-81
2022/07/10 01:50:57;;;;;;;5.63;3.40;;;;;;;;;;5298093;28;20279;-81
2022/07/10 01:53:28;;;;;;;8.75;2.88;;;;;;;;;;5295646;28;20032;-81
2022/07/10 01:56:00;;;;;;;5.90;3.20;;;;;;;;;;5297789;28;20536;-81
2022/07/10 01:58:32;;;;;;;8.48;3.05;;;;;;;;;;5294959;28;20388;-81
2022/07/10 02:01:03;;;;;;;9.25;4.00;;;;;;;;;;5295176;28;20090;-81
2022/07/10 02:06:24;;;;;;;4.50;2.55;;;;;;;;;;5294905;28;20045;-80
2022/07/10 02:08:55;;;;;;;5.13;2.42;;;;;;;;;;5311348;28;20083;-81
2022/07/10 02:11:27;;;;;;;8.07;3.03;;;;;;;;;;5295902;28;20146;-81
2022/07/10 02:13:58;;;;;;;5.97;2.97;;;;;;;;;;5297384;28;20770;-81
2022/07/10 02:16:29;;;;;;;4.57;2.60;;;;;;;;;;5292902;28;20036;-81
2022/07/10 02:19:00;;;;;;;5.57;2.83;;;;;;;;;;5296832;28;20177;-81
2022/07/10 02:21:31;;;;;;;4.65;2.30;;;;;;;;;;5297252;28;20054;-82
2022/07/10 02:24:03;;;;;;;3.63;2.13;;;;;;;;;;5296448;28;20183;-82
2022/07/10 02:26:34;;;;;;;5.93;2.50;;;;;;;;;;5300094;28;20032;-82
2022/07/10 02:29:05;;;;;;;6.10;2.67;;;;;;;;;;5299047;28;20106;-81
2022/07/10 02:31:40;;;;;;;6.27;2.30;;;;;;;;;;5300711;28;20024;-82
2022/07/10 02:34:11;;;;;;;4.97;2.83;;;;;;;;;;5299351;28;20723;-82
2022/07/10 02:36:43;;;;;;;5.35;2.38;;;;;;;;;;5298688;28;20028;-81
2022/07/10 02:39:14;;;;;;;10.00;2.67;;;;;;;;;;5299955;28;20048;-82
2022/07/10 02:41:45;;;;;;;5.97;2.53;;;;;;;;;;5301221;28;20275;-82
2022/07/10 02:44:16;;;;;;;6.53;3.05;;;;;;;;;;5300191;28;20275;-82
2022/07/10 02:46:47;;;;;;;4.60;3.00;;;;;;;;;;5301867;28;20051;-82
2022/07/10 02:49:19;;;;;;;5.72;2.72;;;;;;;;;;5298734;28;20369;-82
2022/07/10 02:51:50;;;;;;;5.30;2.30;;;;;;;;;;5301687;28;20486;-81
2022/07/10 02:54:21;;;;;;;5.57;2.55;;;;;;;;;;5300123;28;20299;-82
2022/07/10 02:56:52;;;;;;;5.43;2.60;;;;;;;;;;5300638;28;20024;-81
2022/07/10 02:59:24;;;;;;;4.80;2.20;;;;;;;;;;5300666;28;20039;-82
2022/07/10 03:01:55;;;;;;;5.82;3.10;;;;;;;;;;5301284;28;20029;-82
2022/07/10 03:04:26;;;;;;;5.22;2.60;;;;;;;;;;5296372;28;20076;-82
2022/07/10 03:06:57;;;;;;;8.38;2.75;;;;;;;;;;5301050;28;20063;-82
2022/07/10 03:09:28;;;;;;;6.90;3.30;;;;;;;;;;5299977;28;20139;-81
2022/07/10 03:12:00;;;;;;;7.03;2.97;;;;;;;;;;5301907;28;20687;-81
2022/07/10 03:14:31;;;;;;;7.30;2.75;;;;;;;;;;5300435;28;20036;-82
2022/07/10 03:17:02;;;;;;;6.00;3.13;;;;;;;;;;5300044;28;20166;-82
2022/07/10 03:19:33;;;;;;;7.00;2.95;;;;;;;;;;5297587;28;20389;-86
2022/07/10 03:22:05;;;;;;;7.80;3.75;;;;;;;;;;5296300;28;20854;-84
2022/07/10 03:24:36;;;;;;;7.90;2.95;;;;;;;;;;5297347;28;20795;-84
2022/07/10 03:27:07;;;;;;;6.25;3.10;;;;;;;;;;5300015;28;20219;-84
2022/07/10 03:29:38;;;;;;;9.03;4.27;;;;;;;;;;5296719;28;20656;-84
2022/07/10 03:32:10;;;;;;;4.80;3.42;;;;;;;;;;5297654;28;20271;-86
2022/07/10 03:34:41;;;;;;;10.60;4.00;;;;;;;;;;5293935;28;20492;-85
2022/07/10 03:37:13;;;;;;;9.57;3.50;;;;;;;;;;5298177;28;20294;-85
2022/07/10 03:39:44;;;;;;;11.27;4.30;;;;;;;;;;5297438;28;20028;-85
2022/07/10 03:42:15;;;;;;;7.75;4.07;;;;;;;;;;5290418;28;20032;-85
2022/07/10 03:44:46;;;;;;;10.95;4.65;;;;;;;;;;5292549;28;20032;-85
2022/07/10 03:47:18;;;;;;;8.23;3.92;;;;;;;;;;5299289;28;20432;-86
2022/07/10 03:49:49;;;;;;;7.93;3.17;;;;;;;;;;5298093;28;20044;-85
2022/07/10 03:52:21;;;;;;;8.55;3.88;;;;;;;;;;5297635;28;20461;-86
2022/07/10 03:54:53;;;;;;;4.63;3.50;;;;;;;;;;5311250;28;20044;-86
2022/07/10 04:00:14;;;;;;;6.65;3.28;;;;;;;;;;5295330;28;20040;-85
2022/07/10 04:02:45;;;;;;;9.45;3.88;;;;;;;;;;5297905;28;20035;-86
2022/07/10 04:05:19;;;;;;;6.77;3.17;;;;;;;;;;5297273;28;20379;-86
2022/07/10 04:07:51;;;;;;;9.85;3.72;;;;;;;;;;5310188;28;20039;-85
2022/07/10 04:10:25;;;;;;;5.47;3.10;;;;;;;;;;5308964;28;20029;-86
2022/07/10 04:12:59;;;;;;;8.45;3.90;;;;;;;;;;5297867;28;20055;-86
2022/07/10 04:15:33;;;;;;;9.45;3.63;;;;;;;;;;5309769;28;20056;-87
2022/07/10 04:18:07;;;;;;;5.32;3.28;;;;;;;;;;5311336;28;20055;-86
2022/07/10 04:20:38;;;;;;;7.00;4.00;;;;;;;;;;5295751;28;20465;-86
2022/07/10 04:23:10;;;;;;;9.70;3.33;;;;;;;;;;5298352;28;20032;-85
2022/07/10 04:25:41;;;;;;;7.05;3.22;;;;;;;;;;5295606;28;20147;-85
2022/07/10 04:28:18;;;;;;;7.18;3.58;;;;;;;;;;5296910;28;21252;-85
2022/07/10 04:30:49;;;;;;;;;;;;;;;;;;5297060;28;20457;-85
2022/07/10 04:33:23;;;;;;;9.50;3.72;;;;;;;;;;5294615;28;19966;-86
2022/07/10 04:35:58;;;;;;;6.95;3.58;;;;;;;;;;5296247;28;20032;-84
2022/07/10 04:39:10;;;;;;;8.85;3.58;;;;;;;;;;5307308;28;20025;-86
2022/07/10 04:41:47;;;;;;;8.82;3.72;;;;;;;;;;5276837;28;20051;-84
2022/07/10 04:44:20;;;;;;;;;;;;;;;;;;5303002;28;20082;-83
2022/07/10 04:46:59;;;;;;;7.28;3.47;;;;;;;;;;5314812;27;20454;-83
2022/07/10 04:49:31;;;;;;;10.35;3.70;;;;;;;;;;5294462;28;20064;-84
2022/07/10 04:52:03;;;;;;;6.15;3.10;;;;;;;;;;5292436;28;20063;-85
2022/07/10 04:54:37;;;;;;;6.18;3.63;;;;;;;;;;5295956;28;20040;-85
2022/07/10 04:57:08;;;;;;;8.02;3.88;;;;;;;;;;5310041;28;20032;-86
2022/07/10 04:59:41;;;;;;;5.47;3.03;;;;;;;;;;5297327;28;20025;-85
2022/07/10 05:02:13;;;;;;;9.52;3.45;;;;;;;;;;5308646;28;20495;-85
2022/07/10 05:04:55;;;;;;;4.45;2.55;;;;;;;;;;5292654;28;20032;-86
2022/07/10 05:07:26;;;;;;;6.43;2.85;;;;;;;;;;5291090;28;20032;-85
2022/07/10 05:20:07;;;;;;;6.20;2.75;;;;;;;;;;5306780;28;20061;-91
2022/07/10 05:22:50;;;;;;;4.88;2.42;;;;;;;;;;5301931;28;20037;-91
2022/07/10 05:29:13;;;;;;;;;;;;;;;;;;;;;
2022/07/10 05:32:39;;;;;;;;;;;;;;;;;;;;;
2022/07/10 05:45:29;;;;;;;9.60;2.15;;;;;;;;;;5252484;23;20096;-91
2022/07/10 05:48:29;;;;;;;3.13;1.80;;;;;;;;;;5163146;28;20071;-92
2022/07/10 05:51:29;;;;;;;6.13;1.52;;;;;;;;;;5172077;28;20040;-92
2022/07/10 05:54:01;;;;;;;5.85;1.63;;;;;;;;;;5153067;28;20054;-92
2022/07/10 05:56:38;;;;;;;5.10;1.40;;;;;;;;;;5152648;28;20028;-91
2022/07/10 05:59:18;;;;;;;6.05;1.63;;;;;;;;;;5157067;28;20150;-92
2022/07/10 06:02:05;;;;;;;6.13;1.55;;;;;;;;;;5152543;28;20357;-92
2022/07/10 06:04:40;;;;;;;5.88;1.45;;;;;;;;;;5174609;28;20039;-92
2022/07/10 06:07:22;;;;;;;6.50;1.75;;;;;;;;;;5184621;28;20098;-91
2022/07/10 06:10:28;;;;;;;5.70;1.75;;;;;;;;;;5167331;28;20039;-92
2022/07/10 06:13:11;;;;;;;5.80;1.80;;;;;;;;;;5159442;28;20142;-91
2022/07/10 06:19:24;;;;;;;4.22;1.30;;;;;;;;;;5190664;28;20047;-93
2022/07/10 06:28:29;;;;;;;5.82;1.50;;;;;;;;;;5161154;28;20039;-92
2022/07/10 06:31:10;;;;;;;5.93;1.37;;;;;;;;;;5176478;28;20039;-92
2022/07/10 06:34:02;;;;;;;;;;;;;;;;;;;;;
2022/07/10 06:36:49;;;;;;;10.18;1.65;;;;;;;;;;5134743;28;41525;-92
2022/07/10 06:40:06;;;;;;;;;;;;;;;;;;;;;
2022/07/10 06:42:55;;;;;;;;;;;;;;;;;;5080945;29;41076;-92
2022/07/10 06:46:01;;;;;;;5.43;1.67;;;;;;;;;;5059950;29;19920;-92
2022/07/10 06:58:18;;;;;;;6.22;1.40;;;;;;;;;;4958552;30;20064;-92
2022/07/10 07:01:01;;;;;;;5.55;1.20;;;;;;;;;;5004960;29;20051;-92
2022/07/10 07:03:45;;;;;;;9.10;1.83;;;;;;;;;;4993707;29;20043;-92
2022/07/10 07:06:25;;;;;;;7.35;1.50;;;;;;;;;;5020115;29;20045;-91
2022/07/10 07:08:59;;;;;;;6.72;1.65;;;;;;;;;;5070414;29;20112;-92
2022/07/10 07:12:05;;;;;;;6.70;1.80;;;;;;;;;;5154295;28;20043;-92
2022/07/10 07:14:39;;;;;;;8.35;1.73;;;;;;;;;;5165958;28;20075;-92
2022/07/10 07:26:43;;;;;;;6.40;1.73;;;;;;;;;;5104987;29;20049;-92
2022/07/10 07:29:25;;;;;;;9.18;2.42;;;;;;;;;;5101025;29;20068;-93
2022/07/10 07:32:19;;;;;;;4.10;1.60;;;;;;;;;;5110095;29;20033;-93
2022/07/10 07:35:14;;;;;;;5.82;1.33;;;;;;;;;;5097428;29;20131;-93
2022/07/10 07:37:54;;;;;;;8.80;1.80;;;;;;;;;;5118597;29;20498;-93
2022/07/10 07:40:57;;;;;;;4.03;1.50;;;;;;;;;;5117465;29;20045;-93
2022/07/10 07:43:34;;;;;;;5.78;1.75;;;;;;;;;;5113110;29;20045;-92
2022/07/10 07:46:37;;;;;;;6.45;1.90;;;;;;;;;;5122197;29;20433;-92
2022/07/10 07:52:05;;;;;;;10.45;2.25;;;;;;;;;;5115758;28;20052;-92
2022/07/10 07:54:56;;;;;;;7.00;2.08;;;;;;;;;;5124798;29;20041;-92
2022/07/10 07:58:11;;;;;;;9.15;2.25;;;;;;;;;;5123566;29;20040;-90
2022/07/10 08:00:56;;;;;;;6.93;1.73;;;;;;;;;;5121422;29;20108;-90
2022/07/10 08:03:51;;;;;;;;;;;;;;;;;;;;;
2022/07/10 08:06:45;;;;;;;6.60;1.98;;;;;;;;;;5124571;29;41814;-90
2022/07/10 08:09:24;;;;;;;8.75;2.60;;;;;;;;;;5130768;29;20040;-91
2022/07/10 08:12:17;;;;;;;9.73;2.65;;;;;;;;;;5141322;28;20497;-90
2022/07/10 08:18:30;;;;;;;11.52;2.60;;;;;;;;;;5173903;28;20039;-90
2022/07/10 08:21:33;;;;;;;8.60;2.40;;;;;;;;;;5149500;28;20230;-90
2022/07/10 08:27:33;;;;;;;8.05;2.30;;;;;;;;;;5170047;28;20047;-90
2022/07/10 08:30:13;;;;;;;10.43;2.45;;;;;;;;;;5153042;28;20039;-90
2022/07/10 08:33:07;;;;;;;6.13;2.40;;;;;;;;;;5147684;28;20047;-90
2022/07/10 08:35:53;;;;;;;6.25;2.25;;;;;;;;;;5149629;28;20043;-91
2022/07/10 08:38:59;;;;;;;;;;;;;;;;;;;;;
2022/07/10 08:44:59;;;;;;;7.90;2.03;;;;;;;;;;5143385;28;20098;-91
2022/07/10 08:53:56;;;;;;;7.97;1.80;;;;;;;;;;5092721;29;20037;-90
2022/07/10 08:56:54;;;;;;;9.95;2.03;;;;;;;;;;5178889;28;20050;-90
2022/07/10 08:59:30;;;;;;;8.77;2.35;;;;;;;;;;5156987;28;20173;-91
2022/07/10 09:09:01;;;;;;;4.25;1.70;;;;;;;;;;5161030;28;20040;-90
2022/07/10 09:18:36;;;;;;;7.55;2.00;;;;;;;;;;5109888;29;20103;-90
2022/07/10 09:37:56;;;;;;;6.35;1.90;;;;;;;;;;5044897;29;20062;-90
2022/07/10 09:40:46;;;;;;;4.65;1.60;;;;;;;;;;5125706;29;20429;-90
2022/07/10 09:47:18;;;;;;;6.13;1.67;;;;;;;;;;5062153;29;20038;-89
2022/07/10 10:16:54;;;;;;;4.30;1.92;;;;;;;;;;4997876;29;20040;-91
2022/07/10 10:26:09;;;;;;;;;;;;;;;;;;;;;
2022/07/10 10:32:16;;;;;;;6.13;2.00;;;;;;;;;;4994559;29;20078;-93
2022/07/10 10:38:14;;;;;;;;;;;;;;;;;;;;;
2022/07/10 10:41:07;;;;;;;6.07;1.40;;;;;;;;;;5018862;29;41272;-89
2022/07/10 10:44:29;;;;;;;3.10;1.30;;;;;;;;;;5080459;29;20406;-91
2022/07/10 10:47:21;;;;;;;4.18;1.40;;;;;;;;;;5060948;29;20190;-91
2022/07/10 10:50:11;;;;;;;3.58;1.27;;;;;;;;;;5046558;29;20431;-92
2022/07/10 10:53:31;;;;;;;;;;;;;;;;;;;;;
2022/07/10 10:56:03;;;;;;;4.55;1.90;;;;;;;;;;5039508;29;20057;-91
2022/07/10 11:02:26;;;;;;;2.42;1.25;;;;;;;;;;5006221;29;20513;-91
2022/07/10 11:14:33;;;;;;;7.93;1.75;;;;;;;;;;5110334;23;20059;-91
2022/07/10 11:23:22;;;;;;;3.75;1.20;;;;;;;;;;5185220;28;20051;-92
2022/07/10 11:26:08;;;;;;;2.40;1.02;;;;;;;;;;5183532;28;20050;-91
2022/07/10 11:29:16;;;;;;;4.40;1.40;;;;;;;;;;5149635;29;20058;-91
2022/07/10 11:35:41;;;;;;;3.22;1.33;;;;;;;;;;5132253;29;20033;-90
2022/07/10 11:38:51;;;;;;;4.47;1.00;;;;;;;;;;5129663;29;20036;-90
2022/07/10 11:42:00;;;;;;;6.93;1.15;;;;;;;;;;5129755;29;20029;-90
2022/07/10 11:44:41;;;;;;;4.95;1.15;;;;;;;;;;5148021;29;20058;-90
2022/07/10 11:57:04;;;;;;;3.30;0.93;;;;;;;;;;5123579;29;20025;-90
2022/07/10 12:00:09;;;;;;;;;;;;;;;;;;;;;
2022/07/10 12:03:07;;;;;;;5.47;1.50;;;;;;;;;;5158232;29;41572;-92
2022/07/10 12:06:02;;;;;;;1.92;0.60;;;;;;;;;;5155795;28;20035;-91
2022/07/10 12:15:42;;;;;;;4.30;0.90;;;;;;;;;;5205181;28;20051;-90
2022/07/10 12:18:34;;;;;;;7.60;1.20;;;;;;;;;;5205838;28;20034;-90
2022/07/10 12:21:38;;;;;;;2.83;0.98;;;;;;;;;;5186558;28;20055;-91
2022/07/10 12:24:23;;;;;;;3.40;1.05;;;;;;;;;;5201453;28;20031;-90
2022/07/10 12:30:19;;;;;;;4.32;1.20;;;;;;;;;;5098945;29;20077;-91
2022/07/10 12:33:32;;;;;;;3.10;1.05;;;;;;;;;;5096952;29;20057;-91
2022/07/10 12:39:17;;;;;;;2.38;1.02;;;;;;;;;;5091091;29;20038;-90
2022/07/10 12:42:10;;;;;;;7.95;1.20;;;;;;;;;;5091825;29;20045;-91
2022/07/10 12:51:15;;;;;;;2.53;0.80;;;;;;;;;;5069839;29;20033;-92
2022/07/10 12:54:01;;;;;;;4.32;0.80;;;;;;;;;;5126223;28;20189;-91
2022/07/10 12:57:00;;;;;;;4.45;0.77;;;;;;;;;;5161077;28;20046;-91
2022/07/10 13:03:29;;;;;;;4.05;0.85;;;;;;;;;;5079171;29;20363;-91
2022/07/10 13:06:27;;;;;;;2.67;1.00;;;;;;;;;;5164198;28;20381;-91
2022/07/10 13:09:45;;;;;;;;;;;;;;;;;;;;;
2022/07/10 13:12:31;;;;;;;4.85;0.95;;;;;;;;;;5157629;28;41365;-92
2022/07/10 13:22:17;;;;;;;4.90;0.80;;;;;;;;;;5151885;28;20027;-91
2022/07/10 13:28:19;;;;;;;4.53;0.73;;;;;;;;;;5158214;28;20035;-91
2022/07/10 13:31:12;;;;;;;4.55;0.90;;;;;;;;;;5141707;28;20468;-92
2022/07/10 13:34:01;;;;;;;3.70;1.15;;;;;;;;;;5156470;28;20074;-92
2022/07/10 13:36:55;;;;;;;2.92;0.70;;;;;;;;;;5139459;28;20036;-91
2022/07/10 13:39:30;;;;;;;4.63;0.95;;;;;;;;;;5156461;28;20032;-91
2022/07/10 13:42:04;;;;;;;6.32;1.08;;;;;;;;;;5141536;28;20044;-92
2022/07/10 13:51:24;;;;;;;4.05;0.95;;;;;;;;;;5097060;29;20040;-91
2022/07/10 13:54:19;;;;;;;3.00;1.10;;;;;;;;;;5065442;29;20053;-91
2022/07/10 14:03:52;;;;;;;5.13;0.80;;;;;;;;;;5093255;29;20030;-91
2022/07/10 14:10:11;;;;;;;1.40;0.68;;;;;;;;;;5046164;29;20043;-91
2022/07/10 14:13:35;;;;;;;4.55;0.80;;;;;;;;;;4993243;29;20238;-91
2022/07/10 14:29:11;;;;;;;2.85;1.00;;;;;;;;;;5023156;29;20528;-91
2022/07/10 14:31:44;;;;;;;2.65;0.77;;;;;;;;;;5024006;29;20232;-91
2022/07/10 14:34:28;;;;;;;3.33;0.93;;;;;;;;;;5008854;29;20035;-91
2022/07/10 14:40:37;;;;;;;2.72;1.00;;;;;;;;;;5121236;29;20386;-91
2022/07/10 14:43:38;;;;;;;3.38;0.85;;;;;;;;;;5121138;29;20041;-92
2022/07/10 14:46:19;;;;;;;4.82;1.10;;;;;;;;;;5117733;29;20494;-92
2022/07/10 14:55:37;;;;;;;;;;;;;;;;;;;;;
2022/07/10 14:58:41;;;;;;;3.80;1.30;;;;;;;;;;5126820;28;40316;-92
2022/07/10 15:07:36;;;;;;;2.15;0.98;;;;;;;;;;5192390;28;20431;-92
2022/07/10 15:10:12;;;;;;;4.28;0.90;;;;;;;;;;5183533;28;20047;-92
2022/07/10 15:12:49;;;;;;;1.92;1.00;;;;;;;;;;5175558;28;20475;-91
2022/07/10 15:15:55;;;;;;;;;;;;;;;;;;;;;
2022/07/10 15:18:57;;;;;;;;;;;;;;;;;;;;;
2022/07/10 15:24:53;;;;;;;3.58;1.30;;;;;;;;;;5103260;29;20061;-94
2022/07/10 15:34:12;;;;;;;12.07;1.58;;;;;;;;;;5130446;28;20041;-94
2022/07/10 15:37:43;;;;;;;8.43;1.50;;;;;;;;;;5183599;28;20019;-92
2022/07/10 15:47:01;;;;;;;8.93;1.20;;;;;;;;;;5105522;29;20052;-94
2022/07/10 15:49:44;;;;;;;;;;;;;;;;;;;;;
2022/07/10 15:52:49;;;;;;;3.90;1.27;;;;;;;;;;5102908;29;40486;-94
2022/07/10 15:55:52;;;;;;;7.80;1.02;;;;;;;;;;5084216;29;20145;-94
2022/07/10 16:01:53;;;;;;;2.05;1.08;;;;;;;;;;5119127;29;20036;-93
2022/07/10 16:04:54;;;;;;;4.93;0.80;;;;;;;;;;5119917;29;20566;-94
2022/07/10 16:11:29;;;;;;;;;;;;;;;;;;;;;
2022/07/10 16:15:00;;;;;;;2.38;1.10;;;;;;;;;;5098912;29;41676;-93
2022/07/10 16:18:24;;;;;;;;;;;;;;;;;;;;;
2022/07/10 16:21:39;;;;;;;;;;;;;;;;;;;;;
2022/07/10 16:24:27;;;;;;;5.03;1.05;;;;;;;;;;5092057;29;40290;-94
2022/07/10 16:27:20;;;;;;;2.15;1.13;;;;;;;;;;5090261;29;20356;-92
2022/07/10 16:42:43;;;;;;;2.60;0.95;;;;;;;;;;5076242;29;20037;-93
2022/07/10 16:49:30;;;;;;;2.97;1.00;;;;;;;;;;5078464;29;20041;-92
2022/07/10 16:52:37;;;;;;;;;;;;;;;;;;;;;
2022/07/10 16:55:19;;;;;;;;;;;;;;;;;;;;;
2022/07/10 17:01:42;;;;;;;1.70;1.00;;;;;;;;;;5073698;29;20402;-93
2022/07/10 17:07:31;;;;;;;2.45;1.02;;;;;;;;;;5134387;28;20114;-92
2022/07/10 17:10:32;;;;;;;3.00;0.90;;;;;;;;;;5144182;28;20057;-92
2022/07/10 17:13:33;;;;;;;3.63;1.30;;;;;;;;;;5131963;28;20043;-93
2022/07/10 17:16:46;;;;;;;3.97;1.15;;;;;;;;;;5116418;28;20040;-92
2022/07/10 17:19:29;;;;;;;3.63;1.15;;;;;;;;;;5117187;29;20048;-93
2022/07/10 17:22:25;;;;;;;5.35;1.20;;;;;;;;;;5118365;29;20131;-92
2022/07/10 17:25:18;;;;;;;4.13;1.08;;;;;;;;;;5129635;29;20148;-92
2022/07/10 17:34:43;;;;;;;3.08;1.45;;;;;;;;;;5025247;29;20400;-92
2022/07/10 17:44:24;;;;;;;4.55;1.30;;;;;;;;;;4983213;29;20492;-92
2022/07/10 17:47:08;;;;;;;2.83;1.15;;;;;;;;;;4985277;29;20040;-92
2022/07/10 17:50:06;;;;;;;3.72;1.23;;;;;;;;;;4988630;29;20043;-92
2022/07/10 17:52:46;;;;;;;4.93;1.77;;;;;;;;;;5025176;29;20031;-92
2022/07/10 17:55:36;;;;;;;3.03;1.42;;;;;;;;;;5051612;29;20442;-92
2022/07/10 18:27:04;;;;;;;3.00;1.10;;;;;;;;;;5187529;28;20051;-91
2022/07/10 21:23:22;;;;;;;;;;;;;;;;;;;;;
2022/07/10 21:47:45;;;;;;;7.93;3.35;;;;;;;;;;5339178;23;20082;-94
2022/07/10 21:51:06;;;;;;;;;;;;;;;;;;;;;
2022/07/10 21:54:03;;;;;;;4.90;2.92;;;;;;;;;;5098830;29;41216;-92
2022/07/10 21:56:42;;;;;;;4.72;3.45;;;;;;;;;;5080258;29;20411;-94
2022/07/10 21:59:14;;;;;;;5.38;2.63;;;;;;;;;;5082813;29;20044;-91
2022/07/10 22:02:02;;;;;;;7.68;3.28;;;;;;;;;;5083033;29;20037;-92
2022/07/10 22:04:43;;;;;;;6.15;2.78;;;;;;;;;;5083282;29;20065;-92
2022/07/10 22:07:34;;;;;;;;;;;;;;;;;;;;;
2022/07/10 22:10:12;;;;;;;6.70;3.13;;;;;;;;;;5097773;29;41590;-92
2022/07/10 22:12:43;;;;;;;5.35;2.60;;;;;;;;;;5082099;29;20475;-93
2022/07/10 22:18:17;;;;;;;8.52;3.47;;;;;;;;;;5126444;29;20031;-92
2022/07/10 22:20:52;;;;;;;5.82;3.10;;;;;;;;;;5122883;29;20486;-92
2022/07/10 22:23:42;;;;;;;;;;;;;;;;;;;;;
2022/07/10 22:26:40;;;;;;;7.85;3.42;;;;;;;;;;5138956;29;41224;-92
2022/07/10 22:35:26;;;;;;;7.75;3.40;;;;;;;;;;5139928;29;20780;-94
2022/07/10 22:41:19;;;;;;;;;;;;;;;;;;;;;
2022/07/10 22:44:23;;;;;;;5.25;2.65;;;;;;;;;;5142388;29;41298;-94
2022/07/10 22:47:17;;;;;;;4.70;2.65;;;;;;;;;;5124637;29;20075;-94
2022/07/10 22:50:17;;;;;;;4.28;3.22;;;;;;;;;;5142583;29;20397;-94
2022/07/10 22:56:00;;;;;;;5.43;3.80;;;;;;;;;;5129436;29;20548;-94
2022/07/10 22:59:03;;;;;;;4.07;3.03;;;;;;;;;;5125239;29;20405;-93
2022/07/10 23:02:03;;;;;;;6.10;2.90;;;;;;;;;;5142734;29;20107;-93
2022/07/10 23:05:17;;;;;;;;;;;;;;;;;;;;;
2022/07/10 23:07:56;;;;;;;5.03;3.38;;;;;;;;;;5142484;29;41229;-93
2022/07/10 23:11:00;;;;;;;;;;;;;;;;;;;;;
2022/07/10 23:23:31;;;;;;;6.40;3.33;;;;;;;;;;5083551;29;20164;-92
2022/07/10 23:26:22;;;;;;;7.55;4.97;;;;;;;;;;5102186;29;20036;-92
2022/07/10 23:29:21;;;;;;;6.95;4.68;;;;;;;;;;5141959;29;20032;-93
2022/07/10 23:32:16;;;;;;;6.63;4.50;;;;;;;;;;5133884;29;20101;-93
2022/07/10 23:35:08;;;;;;;8.00;4.22;;;;;;;;;;5111769;29;20477;-93
2022/07/10 23:41:34;;;;;;;6.70;5.13;;;;;;;;;;5075050;29;20030;-93
2022/07/10 23:48:08;;;;;;;8.85;4.75;;;;;;;;;;5120797;29;20128;-93
2022/07/10 23:51:17;;;;;;;7.85;5.05;;;;;;;;;;5075703;29;20505;-93
2022/07/10 23:57:39;;;;;;;6.55;4.22;;;;;;;;;;5041617;29;20077;-94
